Time;durP1;ratioP1;P1;durP2;ratioP2;P2;SDS_P1;SDS_P2;PMS_P1;PMS_P2;Temp;Humidity;BMP_temperature;BMP_pressure;BME280_temperature;BME280_humidity;BME280_pressure;Samples;Min_cycle;Max_cycle;Signal;HPM_P1;HPM_P2
2023/10/15 00:00:34;;;;;;;9.23;2.33;;;8.00;99.90;;;;;;5028002;28;20519;-68
2023/10/15 00:03:04;;;;;;;8.87;2.13;;;8.00;99.90;;;;;;5027257;28;20473;-68
2023/10/15 00:05:32;;;;;;;7.90;2.00;;;8.00;99.90;;;;;;5027062;28;20513;-69
2023/10/15 00:08:00;;;;;;;7.10;1.40;;;7.90;99.90;;;;;;5027399;28;21009;-68
2023/10/15 00:10:30;;;;;;;7.47;1.40;;;7.80;99.90;;;;;;5027907;28;20445;-70
2023/10/15 00:12:59;;;;;;;8.63;1.60;;;7.80;99.90;;;;;;5027439;28;20445;-68
2023/10/15 00:15:29;;;;;;;8.40;1.77;;;7.80;99.90;;;;;;5027698;28;20493;-69
2023/10/15 00:18:00;;;;;;;10.60;1.93;;;7.80;99.90;;;;;;5027579;28;20536;-68
2023/10/15 00:20:34;;;;;;;6.80;1.57;;;7.70;99.90;;;;;;5032899;28;20449;-69
2023/10/15 00:23:05;;;;;;;8.00;1.67;;;7.50;99.90;;;;;;5027969;28;20882;-69
2023/10/15 00:25:35;;;;;;;9.03;1.90;;;7.30;99.90;;;;;;5028345;28;20484;-68
2023/10/15 00:28:09;;;;;;;6.73;1.43;;;7.20;99.90;;;;;;5027976;28;20477;-68
2023/10/15 00:30:37;;;;;;;13.70;2.67;;;7.10;99.90;;;;;;5029174;28;20441;-69
2023/10/15 00:33:07;;;;;;;11.60;1.93;;;7.00;99.90;;;;;;5028738;28;20449;-69
2023/10/15 00:35:36;;;;;;;9.97;1.73;;;7.10;99.90;;;;;;5029440;28;20445;-67
2023/10/15 00:38:07;;;;;;;7.60;1.57;;;7.20;99.90;;;;;;5028986;28;20528;-68
2023/10/15 00:40:38;;;;;;;10.07;2.10;;;7.10;99.90;;;;;;5028711;28;20451;-67
2023/10/15 00:43:07;;;;;;;10.07;1.80;;;7.20;99.90;;;;;;5028630;28;20456;-67
2023/10/15 00:45:43;;;;;;;8.30;1.50;;;7.20;99.90;;;;;;5028677;28;20480;-67
2023/10/15 00:48:22;;;;;;;8.93;1.40;;;7.10;99.90;;;;;;5028992;28;20528;-68
2023/10/15 00:50:51;;;;;;;9.60;1.73;;;7.10;99.90;;;;;;5028464;28;20526;-67
2023/10/15 00:53:25;;;;;;;9.67;1.70;;;7.20;99.90;;;;;;5028435;28;20499;-67
2023/10/15 00:55:54;;;;;;;8.43;1.77;;;7.40;99.90;;;;;;5028099;28;20483;-67
2023/10/15 00:58:31;;;;;;;9.60;1.67;;;7.50;99.90;;;;;;5027619;28;20465;-68
2023/10/15 01:01:00;;;;;;;9.43;1.93;;;7.60;99.90;;;;;;5025829;28;20429;-67
2023/10/15 01:03:31;;;;;;;7.80;1.53;;;7.60;99.90;;;;;;5028279;28;20468;-68
2023/10/15 01:06:02;;;;;;;8.50;1.37;;;7.60;99.90;;;;;;5028108;28;21164;-67
2023/10/15 01:08:35;;;;;;;14.07;2.33;;;7.60;99.90;;;;;;5028635;28;20531;-68
2023/10/15 01:11:11;;;;;;;8.97;2.30;;;7.80;99.90;;;;;;5027905;28;20451;-68
2023/10/15 01:13:39;;;;;;;12.80;2.60;;;7.80;99.90;;;;;;5028350;28;20464;-67
2023/10/15 01:16:09;;;;;;;14.00;2.40;;;7.70;99.90;;;;;;5028602;28;20512;-67
2023/10/15 01:18:38;;;;;;;9.43;2.67;;;7.90;99.90;;;;;;5028564;28;20556;-67
2023/10/15 01:21:09;;;;;;;8.83;2.67;;;8.00;99.90;;;;;;5028099;28;20460;-67
2023/10/15 01:23:54;;;;;;;10.90;3.83;;;8.00;99.90;;;;;;5028358;28;20469;-67
2023/10/15 01:26:25;;;;;;;10.40;3.70;;;8.00;99.90;;;;;;5028356;28;20481;-68
2023/10/15 01:28:53;;;;;;;10.67;3.47;;;7.90;99.90;;;;;;5028102;28;20500;-68
2023/10/15 01:31:24;;;;;;;10.70;3.00;;;7.90;99.90;;;;;;5028062;28;20516;-67
2023/10/15 01:33:53;;;;;;;9.97;2.17;;;8.00;99.90;;;;;;5027893;28;20530;-66
2023/10/15 01:36:27;;;;;;;9.07;1.97;;;8.00;99.90;;;;;;5028687;28;20448;-68
2023/10/15 01:38:56;;;;;;;11.53;2.40;;;8.20;99.90;;;;;;5031429;28;20450;-66
2023/10/15 01:41:27;;;;;;;8.90;1.90;;;8.20;99.90;;;;;;5031975;28;20822;-66
2023/10/15 01:43:56;;;;;;;10.57;2.00;;;8.20;99.90;;;;;;5032069;28;21042;-68
2023/10/15 01:46:40;;;;;;;8.33;2.10;;;8.20;99.90;;;;;;5032020;28;20489;-67
2023/10/15 01:49:17;;;;;;;10.07;2.00;;;8.10;99.90;;;;;;5032242;28;20446;-67
2023/10/15 01:51:45;;;;;;;10.47;1.93;;;8.10;99.90;;;;;;5031888;28;20450;-67
2023/10/15 01:54:13;;;;;;;8.87;1.90;;;8.10;99.90;;;;;;5031539;28;20529;-67
2023/10/15 01:56:44;;;;;;;8.17;2.00;;;8.10;99.90;;;;;;5032006;28;21100;-68
2023/10/15 01:59:13;;;;;;;12.13;2.07;;;8.20;99.90;;;;;;5031962;28;20523;-67
2023/10/15 02:01:49;;;;;;;8.37;1.63;;;8.30;99.90;;;;;;5031400;28;20451;-67
2023/10/15 02:04:21;;;;;;;11.53;1.93;;;8.40;99.90;;;;;;5031364;28;20463;-67
2023/10/15 02:06:49;;;;;;;8.93;2.03;;;8.40;99.90;;;;;;5031999;28;20482;-67
2023/10/15 02:09:21;;;;;;;7.97;1.70;;;8.40;99.90;;;;;;5031697;28;20454;-67
2023/10/15 02:11:54;;;;;;;10.23;2.30;;;8.60;99.90;;;;;;5034705;28;20565;-66
2023/10/15 02:14:23;;;;;;;8.30;1.57;;;8.60;99.90;;;;;;5024479;28;20476;-68
2023/10/15 02:16:53;;;;;;;8.23;2.07;;;8.70;99.90;;;;;;5031946;28;20502;-67
2023/10/15 02:19:34;;;;;;;8.93;2.00;;;8.60;99.90;;;;;;5024166;28;20457;-67
2023/10/15 02:22:02;;;;;;;9.50;1.73;;;8.60;99.90;;;;;;5031396;28;20823;-67
2023/10/15 02:24:33;;;;;;;9.73;2.00;;;8.60;99.90;;;;;;5031786;28;20860;-68
2023/10/15 02:27:05;;;;;;;8.63;1.70;;;8.70;99.90;;;;;;5031403;28;20493;-67
2023/10/15 02:29:36;;;;;;;9.17;2.10;;;8.60;99.90;;;;;;5031627;28;20445;-67
2023/10/15 02:32:20;;;;;;;9.73;1.90;;;8.60;99.90;;;;;;5031010;28;20453;-69
2023/10/15 02:34:51;;;;;;;9.37;1.80;;;8.50;99.90;;;;;;5031703;28;20847;-68
2023/10/15 02:37:19;;;;;;;13.40;4.80;;;8.50;99.90;;;;;;5023658;28;20435;-66
2023/10/15 02:39:50;;;;;;;8.23;1.63;;;8.50;99.90;;;;;;5031229;28;20442;-66
2023/10/15 02:42:21;;;;;;;8.17;1.80;;;8.40;99.90;;;;;;5022701;28;20818;-67
2023/10/15 02:44:50;;;;;;;10.70;2.00;;;8.30;99.90;;;;;;5031072;28;20462;-68
2023/10/15 02:47:28;;;;;;;9.50;1.83;;;8.20;99.90;;;;;;5031277;28;20506;-69
2023/10/15 02:50:00;;;;;;;13.90;4.13;;;8.20;99.90;;;;;;5030435;28;21074;-67
2023/10/15 02:52:35;;;;;;;9.43;1.70;;;8.10;99.90;;;;;;5030897;28;20465;-67
2023/10/15 02:55:10;;;;;;;8.40;1.87;;;8.10;99.90;;;;;;5030670;28;20479;-66
2023/10/15 02:57:40;;;;;;;10.27;1.97;;;8.00;99.90;;;;;;5031199;28;20442;-68
2023/10/15 03:00:18;;;;;;;9.17;2.13;;;8.00;99.90;;;;;;5030789;28;20439;-68
2023/10/15 03:02:47;;;;;;;9.17;1.87;;;8.00;99.90;;;;;;5030603;28;20949;-66
2023/10/15 03:05:16;;;;;;;10.17;2.30;;;8.10;99.90;;;;;;5030508;28;20464;-67
2023/10/15 03:07:45;;;;;;;7.00;1.57;;;8.10;99.90;;;;;;5030580;28;20486;-67
2023/10/15 03:10:21;;;;;;;10.20;1.70;;;8.10;99.90;;;;;;5030816;28;20687;-68
2023/10/15 03:12:51;;;;;;;8.40;2.10;;;8.30;99.90;;;;;;5030380;28;20453;-67
2023/10/15 03:15:20;;;;;;;7.43;1.57;;;8.40;99.90;;;;;;5030583;28;20545;-68
2023/10/15 03:17:48;;;;;;;11.53;2.33;;;8.30;99.90;;;;;;5034265;28;20447;-67
2023/10/15 03:20:28;;;;;;;8.40;1.73;;;8.40;99.90;;;;;;5030360;28;20543;-67
2023/10/15 03:22:59;;;;;;;8.13;2.13;;;8.30;99.90;;;;;;5029893;28;20855;-67
2023/10/15 03:25:33;;;;;;;8.13;1.70;;;8.30;99.90;;;;;;5030455;28;21015;-68
2023/10/15 03:28:07;;;;;;;9.10;2.23;;;8.20;99.90;;;;;;5030359;28;20510;-68
2023/10/15 03:30:35;;;;;;;8.17;2.23;;;8.40;99.90;;;;;;5030439;28;20443;-67
2023/10/15 03:33:03;;;;;;;9.73;1.60;;;8.40;99.90;;;;;;5029881;28;20448;-66
2023/10/15 03:35:37;;;;;;;8.70;2.00;;;8.50;99.90;;;;;;5030381;28;20549;-67
2023/10/15 03:38:07;;;;;;;7.30;1.93;;;8.50;99.90;;;;;;5030320;28;20447;-67
2023/10/15 03:40:41;;;;;;;7.67;1.77;;;8.60;99.90;;;;;;5029982;28;20451;-67
2023/10/15 03:43:16;;;;;;;8.80;2.03;;;8.60;99.90;;;;;;5029063;28;20474;-67
2023/10/15 03:45:51;;;;;;;8.40;2.03;;;8.60;99.90;;;;;;5030322;28;20894;-67
2023/10/15 03:48:21;;;;;;;9.90;2.10;;;8.60;99.90;;;;;;5029623;28;20954;-68
2023/10/15 03:50:55;;;;;;;10.37;2.67;;;8.60;99.90;;;;;;5029750;28;20455;-67
2023/10/15 03:53:27;;;;;;;8.87;2.30;;;8.60;99.90;;;;;;5029693;28;20443;-66
2023/10/15 03:55:57;;;;;;;8.37;2.70;;;8.50;99.90;;;;;;5029760;28;20457;-66
2023/10/15 03:58:26;;;;;;;12.60;2.60;;;8.50;99.90;;;;;;5029504;28;20447;-67
2023/10/15 04:01:11;;;;;;;10.70;2.30;;;8.50;99.90;;;;;;5029513;28;20528;-68
2023/10/15 04:03:42;;;;;;;10.30;2.40;;;8.50;99.90;;;;;;5023819;28;20465;-67
2023/10/15 04:06:13;;;;;;;9.03;2.13;;;8.50;99.90;;;;;;5029338;28;20455;-67
2023/10/15 04:08:59;;;;;;;10.03;1.80;;;8.50;99.90;;;;;;5029842;28;20455;-67
2023/10/15 04:11:30;;;;;;;7.90;2.60;;;8.60;99.90;;;;;;5029217;28;20986;-67
2023/10/15 04:14:08;;;;;;;8.53;2.13;;;8.60;99.90;;;;;;5029147;28;20582;-67
2023/10/15 04:16:37;;;;;;;9.00;2.03;;;8.50;99.90;;;;;;5029211;28;20507;-68
2023/10/15 04:19:05;;;;;;;8.43;1.97;;;8.50;99.90;;;;;;5029216;28;20442;-67
2023/10/15 04:21:33;;;;;;;7.93;2.47;;;8.40;99.90;;;;;;5029237;28;20451;-67
2023/10/15 04:24:01;;;;;;;8.83;2.53;;;8.30;99.90;;;;;;5028822;28;20468;-67
2023/10/15 04:26:30;;;;;;;8.77;2.40;;;8.40;99.90;;;;;;5029260;28;20503;-68
2023/10/15 04:28:58;;;;;;;9.27;2.40;;;8.40;99.90;;;;;;5028923;28;20997;-67
2023/10/15 04:31:29;;;;;;;11.80;2.20;;;8.30;99.90;;;;;;5028821;28;20454;-67
2023/10/15 04:33:58;;;;;;;8.97;2.30;;;8.30;99.90;;;;;;5028833;28;20473;-67
2023/10/15 04:36:26;;;;;;;12.63;2.57;;;8.20;99.90;;;;;;5029071;28;20445;-67
2023/10/15 04:39:08;;;;;;;8.70;2.50;;;8.20;99.90;;;;;;5028909;28;20449;-67
2023/10/15 04:41:36;;;;;;;10.90;2.40;;;8.10;99.90;;;;;;5028596;28;20452;-67
2023/10/15 04:44:04;;;;;;;9.83;2.50;;;8.10;99.90;;;;;;5028901;28;20472;-67
2023/10/15 04:46:40;;;;;;;8.53;2.20;;;8.20;99.90;;;;;;5028783;28;20445;-68
2023/10/15 04:49:10;;;;;;;11.47;2.70;;;8.40;99.90;;;;;;5028918;28;20449;-68
2023/10/15 04:51:43;;;;;;;9.53;2.30;;;8.50;99.90;;;;;;5028700;28;20504;-67
2023/10/15 04:54:12;;;;;;;10.17;3.00;;;8.60;99.90;;;;;;5028441;28;20469;-68
2023/10/15 04:56:40;;;;;;;8.57;2.30;;;8.60;99.90;;;;;;5028840;28;20512;-67
2023/10/15 04:59:08;;;;;;;9.20;2.47;;;8.70;99.90;;;;;;5028318;28;20452;-68
2023/10/15 05:01:37;;;;;;;9.23;2.40;;;8.60;99.90;;;;;;5028431;28;20541;-68
2023/10/15 05:04:06;;;;;;;9.80;2.60;;;8.70;99.90;;;;;;5028396;28;20468;-67
2023/10/15 05:06:35;;;;;;;8.20;2.33;;;8.70;99.90;;;;;;5028725;28;20442;-67
2023/10/15 05:09:08;;;;;;;8.70;2.50;;;8.70;99.90;;;;;;5028171;28;20512;-68
2023/10/15 05:11:36;;;;;;;7.80;2.80;;;8.70;99.90;;;;;;5028528;28;20455;-67
2023/10/15 05:14:04;;;;;;;10.43;2.30;;;8.70;99.90;;;;;;5028001;28;20498;-67
2023/10/15 05:16:33;;;;;;;9.00;2.90;;;8.60;99.90;;;;;;5028389;28;20552;-67
2023/10/15 05:19:03;;;;;;;8.30;2.63;;;8.60;99.90;;;;;;5028330;28;20502;-68
2023/10/15 05:21:31;;;;;;;9.10;2.60;;;8.60;99.90;;;;;;5028317;28;20508;-68
2023/10/15 05:24:02;;;;;;;9.37;2.47;;;8.60;99.90;;;;;;5027962;28;20469;-67
2023/10/15 05:26:30;;;;;;;8.27;2.67;;;8.60;99.90;;;;;;5028517;28;20693;-67
2023/10/15 05:28:59;;;;;;;9.17;3.00;;;8.60;99.90;;;;;;5028330;28;20476;-67
2023/10/15 05:31:27;;;;;;;10.47;2.37;;;8.60;99.90;;;;;;5027950;28;20453;-69
2023/10/15 05:33:55;;;;;;;9.07;2.20;;;8.60;99.90;;;;;;5028312;28;20465;-68
2023/10/15 05:36:24;;;;;;;8.30;1.70;;;8.60;99.90;;;;;;5028229;28;20453;-67
2023/10/15 05:38:52;;;;;;;10.87;3.10;;;8.60;99.90;;;;;;5028332;28;20465;-66
2023/10/15 05:41:23;;;;;;;9.63;2.30;;;8.50;99.90;;;;;;5027898;28;20444;-67
2023/10/15 05:43:53;;;;;;;9.73;2.30;;;8.50;99.90;;;;;;5027840;28;20588;-67
2023/10/15 05:46:21;;;;;;;10.50;2.53;;;8.60;99.90;;;;;;5028510;28;20451;-67
2023/10/15 05:48:49;;;;;;;9.37;1.90;;;8.60;99.90;;;;;;5028213;28;20478;-67
2023/10/15 05:51:17;;;;;;;9.30;2.10;;;8.60;99.90;;;;;;5027733;28;20450;-67
2023/10/15 05:53:46;;;;;;;7.90;2.10;;;8.70;99.90;;;;;;5028050;28;20472;-67
2023/10/15 05:56:14;;;;;;;11.07;3.33;;;8.70;99.90;;;;;;5028022;28;20469;-69
2023/10/15 05:58:42;;;;;;;8.73;2.13;;;8.80;99.90;;;;;;5028326;28;20516;-69
2023/10/15 06:01:10;;;;;;;15.20;2.00;;;8.80;99.90;;;;;;5027899;28;20530;-69
2023/10/15 06:03:38;;;;;;;8.73;2.10;;;8.80;99.90;;;;;;5028207;28;20535;-70
2023/10/15 06:06:08;;;;;;;7.20;2.07;;;8.90;99.90;;;;;;5028199;28;20498;-69
2023/10/15 06:08:36;;;;;;;8.80;2.00;;;8.80;99.90;;;;;;5028035;28;20562;-69
2023/10/15 06:11:06;;;;;;;11.60;2.20;;;8.80;99.90;;;;;;5027678;28;20446;-68
2023/10/15 06:13:34;;;;;;;9.30;2.00;;;8.90;99.90;;;;;;5028164;28;20469;-70
2023/10/15 06:16:04;;;;;;;10.10;2.00;;;8.90;99.90;;;;;;5028330;28;20462;-69
2023/10/15 06:18:31;;;;;;;9.70;2.33;;;8.80;99.90;;;;;;5028286;28;20458;-68
2023/10/15 06:21:00;;;;;;;7.60;2.20;;;8.90;99.90;;;;;;5027961;28;20893;-67
2023/10/15 06:23:28;;;;;;;10.30;2.17;;;8.90;99.90;;;;;;5027929;28;20504;-67
2023/10/15 06:25:56;;;;;;;11.07;2.40;;;9.00;99.90;;;;;;5031273;28;20442;-68
2023/10/15 06:28:26;;;;;;;9.23;2.20;;;9.00;99.90;;;;;;5031647;28;20483;-68
2023/10/15 06:30:55;;;;;;;8.20;1.67;;;9.10;99.90;;;;;;5031400;28;20503;-71
2023/10/15 06:33:23;;;;;;;7.30;1.70;;;9.10;99.90;;;;;;5031365;28;20887;-68
2023/10/15 06:35:52;;;;;;;11.60;3.13;;;9.10;99.90;;;;;;5031388;28;20486;-69
2023/10/15 06:38:20;;;;;;;8.90;1.80;;;9.10;99.90;;;;;;5031295;28;20807;-68
2023/10/15 06:40:48;;;;;;;11.80;2.23;;;9.00;99.90;;;;;;5031154;28;20975;-68
2023/10/15 06:43:16;;;;;;;12.47;2.13;;;9.00;99.90;;;;;;5031055;28;20485;-68
2023/10/15 06:45:45;;;;;;;11.53;2.50;;;9.00;99.90;;;;;;5031546;28;20453;-68
2023/10/15 06:48:13;;;;;;;10.03;3.33;;;9.10;99.90;;;;;;5031398;28;20960;-69
2023/10/15 06:50:42;;;;;;;9.60;2.70;;;9.20;99.90;;;;;;5031480;28;20453;-69
2023/10/15 06:53:10;;;;;;;8.83;2.10;;;9.20;99.90;;;;;;5030645;28;20455;-66
2023/10/15 06:55:38;;;;;;;10.30;2.13;;;9.30;99.90;;;;;;5031164;28;20458;-68
2023/10/15 06:58:06;;;;;;;8.60;2.33;;;9.40;99.90;;;;;;5031064;28;20844;-66
2023/10/15 07:00:36;;;;;;;9.63;2.20;;;9.40;99.90;;;;;;5030845;28;20448;-67
2023/10/15 07:03:06;;;;;;;9.93;2.37;;;9.50;99.90;;;;;;5030651;28;20455;-67
2023/10/15 07:05:36;;;;;;;7.27;2.00;;;9.60;99.90;;;;;;5031000;28;20820;-68
2023/10/15 07:08:06;;;;;;;13.20;2.63;;;9.60;99.90;;;;;;5030725;28;20498;-67
2023/10/15 07:10:36;;;;;;;10.10;1.77;;;9.70;99.90;;;;;;5030793;28;20452;-68
2023/10/15 07:13:05;;;;;;;8.80;2.20;;;9.70;99.90;;;;;;5030283;28;20447;-68
2023/10/15 07:15:35;;;;;;;7.83;1.87;;;9.70;99.90;;;;;;5030728;28;20472;-67
2023/10/15 07:18:04;;;;;;;11.70;2.00;;;9.70;99.90;;;;;;5030724;28;20442;-67
2023/10/15 07:20:34;;;;;;;10.13;2.50;;;9.80;99.90;;;;;;5030492;28;20468;-67
2023/10/15 07:23:02;;;;;;;10.70;2.57;;;9.90;99.90;;;;;;5030119;28;21012;-68
2023/10/15 07:25:30;;;;;;;10.93;2.17;;;10.10;99.90;;;;;;5030069;28;21058;-69
2023/10/15 07:27:59;;;;;;;8.83;2.57;;;10.20;99.90;;;;;;5030271;28;20444;-68
2023/10/15 07:30:28;;;;;;;10.60;2.70;;;10.40;99.90;;;;;;5022329;28;20457;-67
2023/10/15 07:32:58;;;;;;;9.90;2.03;;;10.50;99.90;;;;;;5030135;28;20478;-67
2023/10/15 07:35:28;;;;;;;10.23;2.20;;;10.50;99.90;;;;;;5029705;28;20468;-67
2023/10/15 07:37:58;;;;;;;8.50;2.13;;;10.50;99.90;;;;;;5030450;28;20448;-67
2023/10/15 07:40:27;;;;;;;8.50;1.70;;;10.30;99.90;;;;;;5029992;28;20447;-68
2023/10/15 07:42:58;;;;;;;11.10;1.97;;;10.30;99.90;;;;;;5029714;28;20521;-67
2023/10/15 07:45:28;;;;;;;7.63;2.27;;;10.30;99.90;;;;;;5029912;28;20473;-68
2023/10/15 07:47:59;;;;;;;9.67;2.30;;;10.30;99.90;;;;;;5030080;28;20820;-68
2023/10/15 07:50:28;;;;;;;9.17;2.03;;;10.30;99.90;;;;;;5029713;28;20517;-67
2023/10/15 07:52:57;;;;;;;8.23;1.73;;;10.20;99.90;;;;;;5029320;28;21204;-67
2023/10/15 07:55:26;;;;;;;9.03;1.80;;;10.20;99.90;;;;;;5029563;28;20553;-68
2023/10/15 07:57:54;;;;;;;11.20;1.90;;;10.40;99.90;;;;;;5029865;28;21006;-67
2023/10/15 08:00:25;;;;;;;10.20;2.43;;;10.60;99.90;;;;;;5029281;28;20459;-68
2023/10/15 08:02:57;;;;;;;8.70;2.10;;;10.80;99.90;;;;;;5029513;28;20527;-67
2023/10/15 08:05:28;;;;;;;12.80;1.90;;;10.90;99.90;;;;;;5029425;28;20463;-68
2023/10/15 08:07:58;;;;;;;8.20;1.60;;;11.10;99.90;;;;;;5029945;28;20840;-66
2023/10/15 08:10:32;;;;;;;10.43;2.33;;;11.30;99.90;;;;;;5029212;28;20582;-66
2023/10/15 08:13:00;;;;;;;7.40;1.50;;;11.40;99.90;;;;;;5029400;28;20811;-67
2023/10/15 08:15:28;;;;;;;9.77;1.90;;;11.40;99.90;;;;;;5029150;28;20468;-66
2023/10/15 08:17:57;;;;;;;10.60;2.07;;;11.40;99.90;;;;;;5029172;28;20531;-68
2023/10/15 08:20:26;;;;;;;9.10;2.17;;;11.40;99.90;;;;;;5028669;28;20437;-66
2023/10/15 08:22:54;;;;;;;8.23;1.60;;;11.40;99.90;;;;;;5028903;28;20502;-66
2023/10/15 08:25:23;;;;;;;8.93;1.90;;;11.40;99.90;;;;;;5028948;28;20468;-66
2023/10/15 08:27:51;;;;;;;8.40;1.80;;;11.40;99.90;;;;;;5029137;28;20449;-69
2023/10/15 08:30:19;;;;;;;8.10;1.87;;;11.50;99.90;;;;;;5028921;28;20556;-66
2023/10/15 08:32:48;;;;;;;7.60;1.53;;;11.50;99.90;;;;;;5028607;28;20459;-66
2023/10/15 08:35:17;;;;;;;7.93;1.40;;;11.40;99.90;;;;;;5028775;28;20986;-67
2023/10/15 08:37:46;;;;;;;9.60;1.70;;;11.60;99.90;;;;;;5029291;28;20448;-67
2023/10/15 08:40:17;;;;;;;11.40;1.40;;;11.90;99.90;;;;;;5029007;28;20449;-68
2023/10/15 08:42:56;;;;;;;8.88;1.70;;;12.20;99.90;;;;;;5029096;28;20449;-67
2023/10/15 08:45:26;;;;;;;10.37;1.43;;;12.20;99.90;;;;;;5028608;28;20275;-66
2023/10/15 08:47:54;;;;;;;8.33;1.37;;;12.20;99.90;;;;;;5028379;28;20438;-66
2023/10/15 08:50:23;;;;;;;10.33;1.80;;;12.20;99.90;;;;;;5028737;28;20488;-66
2023/10/15 08:52:52;;;;;;;8.37;1.23;;;12.40;99.90;;;;;;5028600;28;20441;-67
2023/10/15 08:55:22;;;;;;;8.43;1.60;;;12.40;99.90;;;;;;5028291;28;21034;-66
2023/10/15 08:57:54;;;;;;;10.13;1.80;;;12.20;99.90;;;;;;5028529;28;20539;-65
2023/10/15 09:00:26;;;;;;;11.37;1.30;;;12.20;99.90;;;;;;5028623;28;20449;-66
2023/10/15 09:03:00;;;;;;;6.10;1.00;;;12.10;99.90;;;;;;4961598;28;21576;-68
2023/10/15 09:05:30;;;;;;;8.50;1.53;;;11.90;99.90;;;;;;4963566;28;20475;-68
2023/10/15 09:08:06;;;;;;;8.90;1.27;;;11.50;99.90;;;;;;4964177;28;20508;-68
2023/10/15 09:10:37;;;;;;;8.43;1.23;;;11.30;99.90;;;;;;4967688;28;20609;-68
2023/10/15 09:13:14;;;;;;;10.50;1.40;;;11.00;99.90;;;;;;4963826;28;20511;-69
2023/10/15 09:15:43;;;;;;;7.93;1.60;;;10.80;99.90;;;;;;4966645;28;20447;-68
2023/10/15 09:18:15;;;;;;;7.87;1.83;;;10.70;99.90;;;;;;4966633;28;20450;-68
2023/10/15 09:20:45;;;;;;;10.17;1.80;;;10.60;99.90;;;;;;4985143;28;20993;-66
2023/10/15 09:23:14;;;;;;;9.67;1.57;;;10.60;99.90;;;;;;5026834;28;20456;-67
2023/10/15 09:25:43;;;;;;;11.03;1.43;;;10.60;99.90;;;;;;5027843;28;21009;-68
2023/10/15 09:28:13;;;;;;;11.93;2.10;;;10.60;99.90;;;;;;5024394;28;20931;-68
2023/10/15 09:30:41;;;;;;;11.40;1.23;;;10.70;99.90;;;;;;5024239;28;20478;-67
2023/10/15 09:33:12;;;;;;;8.33;1.17;;;11.10;99.90;;;;;;5026673;28;20836;-67
2023/10/15 09:35:42;;;;;;;8.13;1.40;;;11.50;99.90;;;;;;5026692;28;20879;-68
2023/10/15 09:38:13;;;;;;;10.60;2.10;;;11.60;99.90;;;;;;5024055;28;20453;-68
2023/10/15 09:40:44;;;;;;;9.17;1.67;;;11.60;99.90;;;;;;5025263;28;20457;-68
2023/10/15 09:43:14;;;;;;;7.00;1.20;;;11.60;99.90;;;;;;5025900;28;20502;-67
2023/10/15 09:45:43;;;;;;;9.13;1.50;;;11.80;99.90;;;;;;5026848;28;20457;-67
2023/10/15 09:48:11;;;;;;;9.00;1.20;;;11.70;99.90;;;;;;5026962;28;20471;-68
2023/10/15 09:50:41;;;;;;;7.53;1.03;;;11.40;99.90;;;;;;5027273;28;21931;-66
2023/10/15 09:53:12;;;;;;;7.27;1.30;;;11.60;99.90;;;;;;5023446;28;20460;-66
2023/10/15 09:55:41;;;;;;;9.60;1.27;;;12.20;99.90;;;;;;5025501;28;20457;-67
2023/10/15 09:58:10;;;;;;;8.90;1.30;;;12.80;99.90;;;;;;5025768;28;20837;-68
2023/10/15 10:00:59;;;;;;;7.30;0.83;;;12.90;99.90;;;;;;5030590;28;20441;-68
2023/10/15 10:04:15;;;;;;;9.33;1.27;;;12.40;99.90;;;;;;5029364;28;20483;-68
2023/10/15 10:07:20;;;;;;;9.73;1.63;;;12.00;99.90;;;;;;5030713;28;20451;-67
2023/10/15 10:10:24;;;;;;;8.60;1.27;;;11.90;99.90;;;;;;5005366;28;21075;-67
2023/10/15 10:13:12;;;;;;;7.50;1.23;;;11.70;99.90;;;;;;5028754;28;20458;-67
2023/10/15 10:15:49;;;;;;;7.83;1.50;;;11.60;99.90;;;;;;5030543;28;20447;-66
2023/10/15 10:18:21;;;;;;;8.70;0.97;;;11.40;99.90;;;;;;5029187;28;20555;-66
2023/10/15 10:20:49;;;;;;;8.33;1.20;;;11.20;99.90;;;;;;5027730;28;20463;-66
2023/10/15 10:23:18;;;;;;;12.90;1.57;;;11.10;99.90;;;;;;5030745;28;20544;-67
2023/10/15 10:25:50;;;;;;;7.50;2.33;;;11.80;99.90;;;;;;5029688;28;20452;-68
2023/10/15 10:28:21;;;;;;;10.73;1.40;;;12.90;99.90;;;;;;5028563;28;20481;-68
2023/10/15 10:30:55;;;;;;;11.17;1.27;;;14.00;99.90;;;;;;5030238;28;20506;-69
2023/10/15 10:33:40;;;;;;;6.53;0.87;;;14.50;99.90;;;;;;5029064;28;20544;-68
2023/10/15 10:36:15;;;;;;;6.97;1.17;;;14.10;99.90;;;;;;5029772;28;20442;-65
2023/10/15 10:38:44;;;;;;;6.47;0.93;;;13.30;99.90;;;;;;5030019;28;20445;-68
2023/10/15 10:41:15;;;;;;;6.33;1.03;;;11.70;99.90;;;;;;5029757;28;20444;-67
2023/10/15 10:43:46;;;;;;;7.43;1.50;;;10.10;99.90;;;;;;4947052;28;20992;-68
2023/10/15 10:46:23;;;;;;;7.60;1.10;;;9.30;99.90;;;;;;4948889;28;20628;-69
2023/10/15 10:49:04;;;;;;;7.60;1.13;;;9.00;99.90;;;;;;4946960;28;20465;-67
2023/10/15 10:51:33;;;;;;;11.40;2.30;;;8.90;99.90;;;;;;4944384;28;20490;-69
2023/10/15 10:54:27;;;;;;;6.87;0.90;;;8.80;99.90;;;;;;4949155;28;20625;-68
2023/10/15 10:57:06;;;;;;;7.97;1.23;;;8.70;99.90;;;;;;4948342;28;20452;-68
2023/10/15 10:59:36;;;;;;;8.67;1.30;;;8.80;99.90;;;;;;4948346;28;20460;-71
2023/10/15 11:02:13;;;;;;;8.03;0.90;;;8.90;99.90;;;;;;4949017;28;20442;-70
2023/10/15 11:04:42;;;;;;;6.17;1.07;;;8.80;99.90;;;;;;4947580;28;20531;-68
2023/10/15 11:07:13;;;;;;;7.03;1.50;;;8.80;99.90;;;;;;4949607;28;20446;-70
2023/10/15 11:09:42;;;;;;;8.80;2.97;;;8.90;99.90;;;;;;5028309;28;20481;-69
2023/10/15 11:12:10;;;;;;;7.60;1.90;;;8.90;99.90;;;;;;5028739;28;21037;-70
2023/10/15 11:14:39;;;;;;;7.40;1.27;;;9.00;99.90;;;;;;5029957;28;20469;-68
2023/10/15 11:17:10;;;;;;;7.00;1.37;;;9.50;99.90;;;;;;5027752;28;20453;-70
2023/10/15 11:19:39;;;;;;;8.33;1.20;;;10.90;99.90;;;;;;5029246;28;20821;-70
2023/10/15 11:22:08;;;;;;;8.57;1.43;;;12.50;99.90;;;;;;5030195;28;20437;-69
2023/10/15 11:24:36;;;;;;;7.40;1.80;;;13.80;99.90;;;;;;5028978;28;20517;-69
2023/10/15 11:27:06;;;;;;;7.57;1.33;;;14.70;99.90;;;;;;5030094;28;20444;-69
2023/10/15 11:29:35;;;;;;;6.80;1.57;;;15.70;99.90;;;;;;5028723;28;20459;-70
2023/10/15 11:32:06;;;;;;;9.00;1.30;;;16.60;99.90;;;;;;5029325;28;20472;-67
2023/10/15 11:34:36;;;;;;;7.90;1.40;;;16.90;99.90;;;;;;5029661;28;21009;-69
2023/10/15 11:37:05;;;;;;;8.57;1.40;;;17.20;99.90;;;;;;5025594;28;21061;-69
2023/10/15 11:39:41;;;;;;;8.40;1.50;;;16.50;99.90;;;;;;5026994;28;20449;-69
2023/10/15 11:42:10;;;;;;;8.60;1.50;;;16.10;99.90;;;;;;5024782;28;21002;-68
2023/10/15 11:44:42;;;;;;;8.90;1.27;;;16.20;99.90;;;;;;5026706;28;20542;-67
2023/10/15 11:47:15;;;;;;;7.50;1.23;;;14.90;99.90;;;;;;5024862;28;20440;-67
2023/10/15 11:49:46;;;;;;;6.80;1.00;;;13.20;99.90;;;;;;5029418;28;20441;-66
2023/10/15 11:52:18;;;;;;;7.20;1.13;;;11.90;99.90;;;;;;5027136;28;20477;-68
2023/10/15 11:54:49;;;;;;;7.50;1.67;;;11.30;99.90;;;;;;5029128;28;20468;-69
2023/10/15 11:57:22;;;;;;;8.17;1.30;;;10.80;99.90;;;;;;5029545;28;20468;-68
2023/10/15 11:59:50;;;;;;;7.77;1.37;;;10.70;99.90;;;;;;5029286;28;20526;-69
2023/10/15 12:02:23;;;;;;;10.13;1.00;;;11.20;99.90;;;;;;5028025;28;20451;-67
2023/10/15 12:04:56;;;;;;;8.13;1.07;;;12.50;99.90;;;;;;5028839;28;21252;-68
2023/10/15 12:07:25;;;;;;;6.80;0.87;;;13.90;99.90;;;;;;5029236;28;20542;-68
2023/10/15 12:09:53;;;;;;;7.60;1.30;;;14.90;99.90;;;;;;5029293;28;20476;-69
2023/10/15 12:12:21;;;;;;;6.50;0.93;;;15.10;98.60;;;;;;5028555;28;20627;-71
2023/10/15 12:14:49;;;;;;;8.47;1.57;;;15.70;96.70;;;;;;5029092;28;20554;-68
2023/10/15 12:17:17;;;;;;;7.90;1.07;;;15.80;95.20;;;;;;5028977;28;20459;-70
2023/10/15 12:19:47;;;;;;;7.50;1.27;;;15.60;91.90;;;;;;5029442;28;20455;-69
2023/10/15 12:22:24;;;;;;;6.30;0.90;;;15.40;91.80;;;;;;5027735;28;21149;-69
2023/10/15 12:24:52;;;;;;;9.20;1.83;;;15.30;91.90;;;;;;5029319;28;21196;-68
2023/10/15 12:27:20;;;;;;;7.10;1.07;;;15.40;93.60;;;;;;5029190;28;20491;-69
2023/10/15 12:29:48;;;;;;;7.50;0.90;;;15.00;91.00;;;;;;5028776;28;20449;-70
2023/10/15 12:32:20;;;;;;;6.67;0.90;;;14.50;89.40;;;;;;5028165;28;20483;-70
2023/10/15 12:35:10;;;;;;;6.87;1.50;;;14.30;91.70;;;;;;5027986;28;20872;-68
2023/10/15 12:37:40;;;;;;;7.50;1.00;;;14.00;90.10;;;;;;5028034;28;20495;-70
2023/10/15 12:40:12;;;;;;;7.57;1.00;;;13.60;91.90;;;;;;5026717;28;20466;-68
2023/10/15 12:42:41;;;;;;;6.70;1.10;;;13.10;92.40;;;;;;5027721;28;20506;-69
2023/10/15 12:45:13;;;;;;;8.17;1.13;;;12.70;93.10;;;;;;5024973;28;20464;-69
2023/10/15 12:47:41;;;;;;;8.27;1.07;;;12.50;93.90;;;;;;5028090;28;20441;-68
2023/10/15 12:50:14;;;;;;;7.67;1.17;;;12.20;93.70;;;;;;5024236;28;20439;-69
2023/10/15 12:52:45;;;;;;;10.53;1.73;;;12.00;96.00;;;;;;5027476;28;20488;-68
2023/10/15 12:55:15;;;;;;;8.30;1.40;;;11.90;97.60;;;;;;5028179;28;20468;-69
2023/10/15 12:57:43;;;;;;;6.40;1.10;;;11.80;97.00;;;;;;5028195;28;20857;-68
2023/10/15 13:00:17;;;;;;;6.53;0.97;;;11.80;98.00;;;;;;5028770;28;20452;-69
2023/10/15 13:02:45;;;;;;;7.10;1.10;;;11.80;98.00;;;;;;5025354;28;20437;-70
2023/10/15 13:05:14;;;;;;;6.73;0.90;;;11.90;98.40;;;;;;5028390;28;20500;-70
2023/10/15 13:07:43;;;;;;;12.50;2.60;;;11.90;96.90;;;;;;5027130;28;20452;-70
2023/10/15 13:10:13;;;;;;;10.10;1.50;;;11.90;95.60;;;;;;5026529;28;20472;-70